Coastal Messenger — CFL9726 — position and weather

sailwx.info

Track history (hours):
 
Tides and Currents Weather Stations Pressure Air Temp Water Temp Dewpoint Dewpoint Depression Visibility Wind Speed Wind Dir Waves Ship Positions

Coastal Messenger

Last reported at 2016-Feb-04 21:33 UTC. Time now 2016-Feb-07 10:43 UTC.
Position N 48°31' W 122°34'.

Length 16 m.

Type: Pleasure craft. MMSI: 316016342.

Date/timePositionNaut miles runAvg speedWind from/ knotsBaromVisibWave heightAir tempDewpointWater temp
2016-Feb-04 21:33N 48°31' W 122°34'8 7.6
2016-Feb-04 20:33N 48°38' W 122°39'30 0.6
2016-Feb-02 19:32N 48°60' W 123°10'8 7.6
2016-Feb-02 18:29N 49°05' W 123°19'8 8.4
2016-Feb-02 17:33N 49°13' W 123°18'7 7.0
2016-Feb-02 16:33N 49°18' W 123°11'4 3.7
2016-Feb-02 15:31N 49°19' W 123°05'0 0.0
2016-Feb-02 14:31N 49°19' W 123°05'0 0.0
2016-Feb-02 13:31N 49°19' W 123°05'0 0.0
2016-Feb-02 12:31N 49°19' W 123°05'0 0.0
2016-Feb-02 11:31N 49°19' W 123°05'0 0.0
2016-Feb-02 10:31N 49°19' W 123°05'0 0.0
2016-Feb-02 09:31N 49°19' W 123°05'0 0.0
2016-Feb-02 08:31N 49°19' W 123°05'0 0.0
2016-Feb-02 07:31N 49°19' W 123°05'0 0.0
2016-Feb-02 06:31N 49°19' W 123°05'0 0.0
2016-Feb-02 05:31N 49°19' W 123°05'0 0.0
2016-Feb-02 04:31N 49°19' W 123°05'0 0.0
2016-Feb-02 03:31N 49°19' W 123°05'0 0.0
2016-Feb-02 02:31N 49°19' W 123°05'0 0.0
2016-Feb-02 01:31N 49°19' W 123°05'0 0.0
2016-Feb-02 00:31N 49°19' W 123°05'0 0.0
2016-Feb-01 23:31N 49°19' W 123°05'0 0.0
2016-Feb-01 22:31N 49°19' W 123°05'0 0.0
2016-Feb-01 21:31N 49°19' W 123°05'0 0.0
2016-Feb-01 20:28N 49°19' W 123°05'0 0.0
2016-Feb-01 19:31N 49°19' W 123°05'0 0.0
2016-Feb-01 18:31N 49°19' W 123°05'0 0.0
2016-Feb-01 17:31N 49°19' W 123°05'0 0.0
2016-Feb-01 16:31N 49°19' W 123°05'0 0.0
2016-Feb-01 15:31N 49°19' W 123°05'0 0.0
2016-Feb-01 14:31N 49°19' W 123°05'0 0.0
2016-Feb-01 13:31N 49°19' W 123°05'0 0.0
2016-Feb-01 12:31N 49°19' W 123°05'0 0.0
2016-Feb-01 11:31N 49°19' W 123°05'0 0.0
2016-Feb-01 10:31N 49°19' W 123°05'0 0.0
2016-Feb-01 09:31N 49°19' W 123°05'0 0.0
2016-Feb-01 08:32N 49°19' W 123°05'0 0.0
2016-Feb-01 07:31N 49°19' W 123°05'0 0.0
2016-Feb-01 06:32N 49°19' W 123°05'0 0.0
2016-Feb-01 05:31N 49°19' W 123°05'0 0.0
2016-Feb-01 04:32N 49°19' W 123°05'0 0.0
2016-Feb-01 03:32N 49°19' W 123°05'0 0.0
2016-Feb-01 02:32N 49°19' W 123°05'0 0.0
2016-Feb-01 01:32N 49°19' W 123°05'0 0.0
2016-Feb-01 00:32N 49°19' W 123°05'0 0.0
2016-Jan-31 23:32N 49°19' W 123°05'0 0.0
2016-Jan-31 22:32N 49°19' W 123°05'0 0.0
2016-Jan-31 21:32N 49°19' W 123°05'0 0.0
2016-Jan-31 20:32N 49°19' W 123°05'0 0.0
2016-Jan-31 19:32N 49°19' W 123°05'0 0.0
2016-Jan-31 18:32N 49°19' W 123°05'0 0.0
2016-Jan-31 17:32N 49°19' W 123°05'0 0.0
2016-Jan-31 16:32N 49°19' W 123°05'0 0.0
2016-Jan-31 15:32N 49°19' W 123°05'0 0.0
2016-Jan-31 14:32N 49°19' W 123°05'0 0.0
2016-Jan-31 13:32N 49°19' W 123°05'0 0.0
2016-Jan-31 12:32N 49°19' W 123°05'0 0.0
2016-Jan-31 11:32N 49°19' W 123°05'0 0.0
2016-Jan-31 10:32N 49°19' W 123°05'0 0.0
2016-Jan-31 09:33N 49°19' W 123°05'0 0.0
2016-Jan-31 08:32N 49°19' W 123°05'0 0.0
2016-Jan-31 07:32N 49°19' W 123°05'0 0.0
2016-Jan-31 06:32N 49°19' W 123°05'0 0.0
2016-Jan-31 05:32N 49°19' W 123°05'0 0.0
2016-Jan-31 04:32N 49°19' W 123°05'0 0.0
2016-Jan-31 03:32N 49°19' W 123°05'0 0.0
2016-Jan-31 02:32N 49°19' W 123°05'0 0.0
2016-Jan-31 01:32N 49°19' W 123°05'0 0.0
2016-Jan-31 00:32N 49°19' W 123°05'0 0.0
2016-Jan-30 23:32N 49°19' W 123°05'0 0.0
2016-Jan-30 22:32N 49°19' W 123°05'0 0.0
2016-Jan-30 21:32N 49°19' W 123°05'0 0.0
2016-Jan-30 20:32N 49°19' W 123°05'0 0.0
2016-Jan-30 19:32N 49°19' W 123°05'0 0.0
2016-Jan-30 18:32N 49°19' W 123°05'0 0.0
2016-Jan-30 17:32N 49°19' W 123°05'0 0.0
2016-Jan-30 16:32N 49°19' W 123°05'0 0.0
2016-Jan-30 15:32N 49°19' W 123°05'0 0.0
2016-Jan-30 14:32N 49°19' W 123°05'0 0.0
2016-Jan-30 13:32N 49°19' W 123°05'0 0.0
2016-Jan-30 12:32N 49°19' W 123°05'0 0.0
2016-Jan-30 11:32N 49°19' W 123°05'0 0.0
2016-Jan-30 10:32N 49°19' W 123°05'0 0.0
2016-Jan-30 09:32N 49°19' W 123°05'0 0.0
2016-Jan-30 08:32N 49°19' W 123°05'0 0.0
2016-Jan-30 07:32N 49°19' W 123°05'0 0.0
2016-Jan-30 06:32N 49°19' W 123°05'0 0.0
2016-Jan-30 05:32N 49°19' W 123°05'0 0.0
2016-Jan-30 04:32N 49°19' W 123°05'0 0.0
2016-Jan-30 03:32N 49°19' W 123°05'0 0.0
2016-Jan-30 02:32N 49°19' W 123°05'0 0.0
2016-Jan-30 01:32N 49°19' W 123°05'0 0.0
2016-Jan-30 00:32N 49°19' W 123°05'0 0.0
2016-Jan-29 23:32N 49°19' W 123°05'0 0.0
2016-Jan-29 22:32N 49°19' W 123°05'0 0.0
2016-Jan-29 21:32N 49°19' W 123°05'0 0.0
2016-Jan-29 20:32N 49°19' W 123°05'0 0.0
2016-Jan-29 19:32N 49°19' W 123°05'0 0.0
2016-Jan-29 18:32N 49°19' W 123°05'0 0.0
2016-Jan-29 17:32N 49°19' W 123°05'0 0.0
2016-Jan-29 16:32N 49°19' W 123°05'0 0.0
2016-Jan-29 15:32N 49°19' W 123°05'0 0.0
2016-Jan-29 14:32N 49°19' W 123°05'0 0.0
2016-Jan-29 13:32N 49°19' W 123°05'0 0.0
2016-Jan-29 12:32N 49°19' W 123°05'0 0.0
2016-Jan-29 11:32N 49°19' W 123°05'0 0.0
2016-Jan-29 10:32N 49°19' W 123°05'0 0.0
2016-Jan-29 09:32N 49°19' W 123°05'0 0.0
2016-Jan-29 08:32N 49°19' W 123°05'0 0.0
2016-Jan-29 07:32N 49°19' W 123°05'0 0.0
2016-Jan-29 06:32N 49°19' W 123°05'0 0.0
2016-Jan-29 05:32N 49°19' W 123°05'0 0.0
2016-Jan-29 04:32N 49°19' W 123°05'0 0.0
2016-Jan-29 03:32N 49°19' W 123°05'0 0.0
2016-Jan-29 02:32N 49°19' W 123°05'0 0.0
2016-Jan-29 01:32N 49°19' W 123°05'0 0.0
2016-Jan-29 00:32N 49°19' W 123°05'0 0.0
2016-Jan-28 23:32N 49°19' W 123°05'0 0.0
2016-Jan-28 22:32N 49°19' W 123°05'0 0.0
2016-Jan-28 21:32N 49°19' W 123°05'0 0.0
2016-Jan-28 20:32N 49°19' W 123°05'0 0.0
2016-Jan-28 19:32N 49°19' W 123°05'0 0.0
2016-Jan-28 18:32N 49°19' W 123°05'0 0.0
2016-Jan-28 17:32N 49°19' W 123°05'0 0.0
2016-Jan-28 16:32N 49°19' W 123°05'0 0.0
2016-Jan-28 15:32N 49°19' W 123°05'0 0.0
2016-Jan-28 14:32N 49°19' W 123°05'0 0.0
2016-Jan-28 13:32N 49°19' W 123°05'0 0.0
2016-Jan-28 12:32N 49°19' W 123°05'0 0.0
2016-Jan-28 11:32N 49°19' W 123°05'0 0.0
2016-Jan-28 10:32N 49°19' W 123°05'0 0.0
2016-Jan-28 09:32N 49°19' W 123°05'0 0.0
2016-Jan-28 08:32N 49°19' W 123°05'0 0.0
2016-Jan-28 07:32N 49°19' W 123°05'0 0.0
2016-Jan-28 06:32N 49°19' W 123°05'0 0.0
2016-Jan-28 05:32N 49°19' W 123°05'0 0.0
2016-Jan-28 04:32N 49°19' W 123°05'0 0.0
2016-Jan-28 03:32N 49°19' W 123°05'0 0.0
2016-Jan-28 02:32N 49°19' W 123°05'0 0.0
2016-Jan-28 01:32N 49°19' W 123°05'0 0.0
2016-Jan-28 00:32N 49°19' W 123°05'0 0.0
2016-Jan-27 23:32N 49°19' W 123°05'1 0.7
2016-Jan-27 22:33N 49°18' W 123°06'1 1.0
2016-Jan-27 21:33N 49°18' W 123°08'7 6.6
2016-Jan-27 20:33N 49°16' W 123°17'8 8.1
2016-Jan-27 19:33N 49°08' W 123°19'8 7.9
2016-Jan-27 18:32N 49°00' W 123°20'8 7.8
2016-Jan-27 17:33N 48°53' W 123°16'20 1.2
2016-Jan-27 01:10N 48°36' W 123°01'4 5.3
2016-Jan-27 00:28N 48°35' W 122°56'0 0.0
2016-Jan-26 23:13N 48°35' W 122°56'0 0.0
2016-Jan-26 22:26N 48°35' W 122°56'0 0.0
2016-Jan-26 21:26N 48°35' W 122°56'0 0.0
2016-Jan-26 17:23N 48°35' W 122°56'0 0.0
2016-Jan-26 16:20N 48°35' W 122°56'0 0.0
2016-Jan-26 15:32N 48°35' W 122°56'0 0.0
2016-Jan-26 14:29N 48°35' W 122°56'0 0.0
2016-Jan-26 13:32N 48°35' W 122°56'0 0.0
2016-Jan-26 12:32N 48°35' W 122°56'0 0.0
2016-Jan-26 11:26N 48°35' W 122°56'0 0.0
2016-Jan-26 10:29N 48°35' W 122°56'0 0.0
2016-Jan-26 09:32N 48°35' W 122°56'0 0.0
2016-Jan-26 08:32N 48°35' W 122°56'0 0.0
2016-Jan-26 07:20N 48°35' W 122°56'0 0.0
2016-Jan-26 06:26N 48°35' W 122°56'0 0.0
2016-Jan-26 05:32N 48°35' W 122°56'0 0.0
2016-Jan-26 04:32N 48°35' W 122°56'0 0.0
2016-Jan-26 03:32N 48°35' W 122°56'0 0.0
2016-Jan-26 01:32N 48°35' W 122°56'0 0.0
2016-Jan-26 00:32N 48°35' W 122°56'0 0.0
2016-Jan-25 23:23N 48°35' W 122°56'0 0.0
2016-Jan-25 22:32N 48°35' W 122°56'  
Track history (hours):
 
Tides and Currents Weather Stations Pressure Air Temp Water Temp Dewpoint Dewpoint Depression Visibility Wind Speed Wind Dir Waves Ship Positions

Coastal Messenger

Last reported at 2016-Feb-04 21:33 UTC. Time now 2016-Feb-07 10:44 UTC.
Position N 48°31' W 122°34'.

Length 16 m.

Type: Pleasure craft. MMSI: 316016342.

Date/timePositionNaut miles runAvg speedWind from/ knotsBaromVisibWave heightAir tempDewpointWater temp
2016-Feb-04 21:33N 48°31' W 122°34'8 7.6
2016-Feb-04 20:33N 48°38' W 122°39'30 0.6
2016-Feb-02 19:32N 48°60' W 123°10'8 7.6
2016-Feb-02 18:29N 49°05' W 123°19'8 8.4
2016-Feb-02 17:33N 49°13' W 123°18'7 7.0
2016-Feb-02 16:33N 49°18' W 123°11'4 3.7
2016-Feb-02 15:31N 49°19' W 123°05'0 0.0
2016-Feb-02 14:31N 49°19' W 123°05'0 0.0
2016-Feb-02 13:31N 49°19' W 123°05'0 0.0
2016-Feb-02 12:31N 49°19' W 123°05'0 0.0
2016-Feb-02 11:31N 49°19' W 123°05'0 0.0
2016-Feb-02 10:31N 49°19' W 123°05'0 0.0
2016-Feb-02 09:31N 49°19' W 123°05'0 0.0
2016-Feb-02 08:31N 49°19' W 123°05'0 0.0
2016-Feb-02 07:31N 49°19' W 123°05'0 0.0
2016-Feb-02 06:31N 49°19' W 123°05'0 0.0
2016-Feb-02 05:31N 49°19' W 123°05'0 0.0
2016-Feb-02 04:31N 49°19' W 123°05'0 0.0
2016-Feb-02 03:31N 49°19' W 123°05'0 0.0
2016-Feb-02 02:31N 49°19' W 123°05'0 0.0
2016-Feb-02 01:31N 49°19' W 123°05'0 0.0
2016-Feb-02 00:31N 49°19' W 123°05'0 0.0
2016-Feb-01 23:31N 49°19' W 123°05'0 0.0
2016-Feb-01 22:31N 49°19' W 123°05'0 0.0
2016-Feb-01 21:31N 49°19' W 123°05'0 0.0
2016-Feb-01 20:28N 49°19' W 123°05'0 0.0
2016-Feb-01 19:31N 49°19' W 123°05'0 0.0
2016-Feb-01 18:31N 49°19' W 123°05'0 0.0
2016-Feb-01 17:31N 49°19' W 123°05'0 0.0
2016-Feb-01 16:31N 49°19' W 123°05'0 0.0
2016-Feb-01 15:31N 49°19' W 123°05'0 0.0
2016-Feb-01 14:31N 49°19' W 123°05'0 0.0
2016-Feb-01 13:31N 49°19' W 123°05'0 0.0
2016-Feb-01 12:31N 49°19' W 123°05'0 0.0
2016-Feb-01 11:31N 49°19' W 123°05'0 0.0
2016-Feb-01 10:31N 49°19' W 123°05'0 0.0
2016-Feb-01 09:31N 49°19' W 123°05'0 0.0
2016-Feb-01 08:32N 49°19' W 123°05'0 0.0
2016-Feb-01 07:31N 49°19' W 123°05'0 0.0
2016-Feb-01 06:32N 49°19' W 123°05'0 0.0
2016-Feb-01 05:31N 49°19' W 123°05'0 0.0
2016-Feb-01 04:32N 49°19' W 123°05'0 0.0
2016-Feb-01 03:32N 49°19' W 123°05'0 0.0
2016-Feb-01 02:32N 49°19' W 123°05'0 0.0
2016-Feb-01 01:32N 49°19' W 123°05'0 0.0
2016-Feb-01 00:32N 49°19' W 123°05'0 0.0
2016-Jan-31 23:32N 49°19' W 123°05'0 0.0
2016-Jan-31 22:32N 49°19' W 123°05'0 0.0
2016-Jan-31 21:32N 49°19' W 123°05'0 0.0
2016-Jan-31 20:32N 49°19' W 123°05'0 0.0
2016-Jan-31 19:32N 49°19' W 123°05'0 0.0
2016-Jan-31 18:32N 49°19' W 123°05'0 0.0
2016-Jan-31 17:32N 49°19' W 123°05'0 0.0
2016-Jan-31 16:32N 49°19' W 123°05'0 0.0
2016-Jan-31 15:32N 49°19' W 123°05'0 0.0
2016-Jan-31 14:32N 49°19' W 123°05'0 0.0
2016-Jan-31 13:32N 49°19' W 123°05'0 0.0
2016-Jan-31 12:32N 49°19' W 123°05'0 0.0
2016-Jan-31 11:32N 49°19' W 123°05'0 0.0
2016-Jan-31 10:32N 49°19' W 123°05'0 0.0
2016-Jan-31 09:33N 49°19' W 123°05'0 0.0
2016-Jan-31 08:32N 49°19' W 123°05'0 0.0
2016-Jan-31 07:32N 49°19' W 123°05'0 0.0
2016-Jan-31 06:32N 49°19' W 123°05'0 0.0
2016-Jan-31 05:32N 49°19' W 123°05'0 0.0
2016-Jan-31 04:32N 49°19' W 123°05'0 0.0
2016-Jan-31 03:32N 49°19' W 123°05'0 0.0
2016-Jan-31 02:32N 49°19' W 123°05'0 0.0
2016-Jan-31 01:32N 49°19' W 123°05'0 0.0
2016-Jan-31 00:32N 49°19' W 123°05'0 0.0
2016-Jan-30 23:32N 49°19' W 123°05'0 0.0
2016-Jan-30 22:32N 49°19' W 123°05'0 0.0
2016-Jan-30 21:32N 49°19' W 123°05'0 0.0
2016-Jan-30 20:32N 49°19' W 123°05'0 0.0
2016-Jan-30 19:32N 49°19' W 123°05'0 0.0
2016-Jan-30 18:32N 49°19' W 123°05'0 0.0
2016-Jan-30 17:32N 49°19' W 123°05'0 0.0
2016-Jan-30 16:32N 49°19' W 123°05'0 0.0
2016-Jan-30 15:32N 49°19' W 123°05'0 0.0
2016-Jan-30 14:32N 49°19' W 123°05'0 0.0
2016-Jan-30 13:32N 49°19' W 123°05'0 0.0
2016-Jan-30 12:32N 49°19' W 123°05'0 0.0
2016-Jan-30 11:32N 49°19' W 123°05'0 0.0
2016-Jan-30 10:32N 49°19' W 123°05'0 0.0
2016-Jan-30 09:32N 49°19' W 123°05'0 0.0
2016-Jan-30 08:32N 49°19' W 123°05'0 0.0
2016-Jan-30 07:32N 49°19' W 123°05'0 0.0
2016-Jan-30 06:32N 49°19' W 123°05'0 0.0
2016-Jan-30 05:32N 49°19' W 123°05'0 0.0
2016-Jan-30 04:32N 49°19' W 123°05'0 0.0
2016-Jan-30 03:32N 49°19' W 123°05'0 0.0
2016-Jan-30 02:32N 49°19' W 123°05'0 0.0
2016-Jan-30 01:32N 49°19' W 123°05'0 0.0
2016-Jan-30 00:32N 49°19' W 123°05'0 0.0
2016-Jan-29 23:32N 49°19' W 123°05'0 0.0
2016-Jan-29 22:32N 49°19' W 123°05'0 0.0
2016-Jan-29 21:32N 49°19' W 123°05'0 0.0
2016-Jan-29 20:32N 49°19' W 123°05'0 0.0
2016-Jan-29 19:32N 49°19' W 123°05'0 0.0
2016-Jan-29 18:32N 49°19' W 123°05'0 0.0
2016-Jan-29 17:32N 49°19' W 123°05'0 0.0
2016-Jan-29 16:32N 49°19' W 123°05'0 0.0
2016-Jan-29 15:32N 49°19' W 123°05'0 0.0
2016-Jan-29 14:32N 49°19' W 123°05'0 0.0
2016-Jan-29 13:32N 49°19' W 123°05'0 0.0
2016-Jan-29 12:32N 49°19' W 123°05'0 0.0
2016-Jan-29 11:32N 49°19' W 123°05'0 0.0
2016-Jan-29 10:32N 49°19' W 123°05'0 0.0
2016-Jan-29 09:32N 49°19' W 123°05'0 0.0
2016-Jan-29 08:32N 49°19' W 123°05'0 0.0
2016-Jan-29 07:32N 49°19' W 123°05'0 0.0
2016-Jan-29 06:32N 49°19' W 123°05'0 0.0
2016-Jan-29 05:32N 49°19' W 123°05'0 0.0
2016-Jan-29 04:32N 49°19' W 123°05'0 0.0
2016-Jan-29 03:32N 49°19' W 123°05'0 0.0
2016-Jan-29 02:32N 49°19' W 123°05'0 0.0
2016-Jan-29 01:32N 49°19' W 123°05'0 0.0
2016-Jan-29 00:32N 49°19' W 123°05'0 0.0
2016-Jan-28 23:32N 49°19' W 123°05'0 0.0
2016-Jan-28 22:32N 49°19' W 123°05'0 0.0
2016-Jan-28 21:32N 49°19' W 123°05'0 0.0
2016-Jan-28 20:32N 49°19' W 123°05'0 0.0
2016-Jan-28 19:32N 49°19' W 123°05'0 0.0
2016-Jan-28 18:32N 49°19' W 123°05'0 0.0
2016-Jan-28 17:32N 49°19' W 123°05'0 0.0
2016-Jan-28 16:32N 49°19' W 123°05'0 0.0
2016-Jan-28 15:32N 49°19' W 123°05'0 0.0
2016-Jan-28 14:32N 49°19' W 123°05'0 0.0
2016-Jan-28 13:32N 49°19' W 123°05'0 0.0
2016-Jan-28 12:32N 49°19' W 123°05'0 0.0
2016-Jan-28 11:32N 49°19' W 123°05'0 0.0
2016-Jan-28 10:32N 49°19' W 123°05'0 0.0
2016-Jan-28 09:32N 49°19' W 123°05'0 0.0
2016-Jan-28 08:32N 49°19' W 123°05'0 0.0
2016-Jan-28 07:32N 49°19' W 123°05'0 0.0
2016-Jan-28 06:32N 49°19' W 123°05'0 0.0
2016-Jan-28 05:32N 49°19' W 123°05'0 0.0
2016-Jan-28 04:32N 49°19' W 123°05'0 0.0
2016-Jan-28 03:32N 49°19' W 123°05'0 0.0
2016-Jan-28 02:32N 49°19' W 123°05'0 0.0
2016-Jan-28 01:32N 49°19' W 123°05'0 0.0
2016-Jan-28 00:32N 49°19' W 123°05'0 0.0
2016-Jan-27 23:32N 49°19' W 123°05'1 0.7
2016-Jan-27 22:33N 49°18' W 123°06'1 1.0
2016-Jan-27 21:33N 49°18' W 123°08'7 6.6
2016-Jan-27 20:33N 49°16' W 123°17'8 8.1
2016-Jan-27 19:33N 49°08' W 123°19'8 7.9
2016-Jan-27 18:32N 49°00' W 123°20'8 7.8
2016-Jan-27 17:33N 48°53' W 123°16'20 1.2
2016-Jan-27 01:10N 48°36' W 123°01'4 5.3
2016-Jan-27 00:28N 48°35' W 122°56'0 0.0
2016-Jan-26 23:13N 48°35' W 122°56'0 0.0
2016-Jan-26 22:26N 48°35' W 122°56'0 0.0
2016-Jan-26 21:26N 48°35' W 122°56'0 0.0
2016-Jan-26 17:23N 48°35' W 122°56'0 0.0
2016-Jan-26 16:20N 48°35' W 122°56'0 0.0
2016-Jan-26 15:32N 48°35' W 122°56'0 0.0
2016-Jan-26 14:29N 48°35' W 122°56'0 0.0
2016-Jan-26 13:32N 48°35' W 122°56'0 0.0
2016-Jan-26 12:32N 48°35' W 122°56'0 0.0
2016-Jan-26 11:26N 48°35' W 122°56'0 0.0
2016-Jan-26 10:29N 48°35' W 122°56'0 0.0
2016-Jan-26 09:32N 48°35' W 122°56'0 0.0
2016-Jan-26 08:32N 48°35' W 122°56'0 0.0
2016-Jan-26 07:20N 48°35' W 122°56'0 0.0
2016-Jan-26 06:26N 48°35' W 122°56'0 0.0
2016-Jan-26 05:32N 48°35' W 122°56'0 0.0
2016-Jan-26 04:32N 48°35' W 122°56'0 0.0
2016-Jan-26 03:32N 48°35' W 122°56'0 0.0
2016-Jan-26 01:32N 48°35' W 122°56'0 0.0
2016-Jan-26 00:32N 48°35' W 122°56'0 0.0
2016-Jan-25 23:23N 48°35' W 122°56'0 0.0
2016-Jan-25 22:32N 48°35' W 122°56'  

Dump ship's entire track history